Time;durP1;ratioP1;P1;durP2;ratioP2;P2;SDS_P1;SDS_P2;PMS_P1;PMS_P2;Temp;Humidity;BMP_temperature;BMP_pressure;BME280_temperature;BME280_humidity;BME280_pressure;Samples;Min_cycle;Max_cycle;Signal;HPM_P1;HPM_P2
2022/01/07 00:02:21;;;;;;;93.12;36.20;;;;;;;-5.11;71.87;100790.16;2052458;85;29859;-68
2022/01/07 00:05:24;;;;;;;101.33;38.83;;;;;;;-5.16;71.97;100779.61;2051523;85;27655;-62
2022/01/07 00:08:27;;;;;;;96.87;35.65;;;;;;;-5.21;72.04;100785.14;2055647;85;29045;-62
2022/01/07 00:11:30;;;;;;;85.25;33.45;;;;;;;-5.25;72.12;100783.30;2052196;85;31136;-65
2022/01/07 00:14:33;;;;;;;96.32;35.60;;;;;;;-5.30;72.25;100781.90;2051852;86;33606;-65
2022/01/07 00:17:35;;;;;;;81.70;31.50;;;;;;;-5.33;72.27;100779.21;2051428;85;30051;-66
2022/01/07 00:20:38;;;;;;;73.65;31.93;;;;;;;-5.35;72.36;100778.29;2064424;85;27706;-68
2022/01/07 00:23:41;;;;;;;79.50;31.57;;;;;;;-5.37;72.44;100770.84;2042044;85;29482;-62
2022/01/07 00:26:43;;;;;;;69.80;28.45;;;;;;;-5.39;72.51;100766.03;2083587;84;31830;-68
2022/01/07 00:29:46;;;;;;;77.40;31.40;;;;;;;-5.41;72.59;100762.50;2068388;85;34228;-63
2022/01/07 00:32:48;;;;;;;78.55;31.75;;;;;;;-5.45;72.66;100763.27;2061011;86;30415;-63
2022/01/07 00:35:56;;;;;;;79.12;31.33;;;;;;;-5.47;72.72;100758.03;2060999;86;27650;-64
2022/01/07 00:38:58;;;;;;;78.17;31.52;;;;;;;-5.49;72.77;100763.20;2061011;86;28681;-61
2022/01/07 00:42:00;;;;;;;74.47;30.12;;;;;;;-5.49;72.73;100759.27;2060873;86;31418;-61
2022/01/07 00:45:04;;;;;;;67.72;31.10;;;;;;;-5.50;72.72;100760.56;2060929;86;33651;-62
2022/01/07 00:48:06;;;;;;;77.08;30.02;;;;;;;-5.51;72.75;100765.32;2060907;86;29286;-62
2022/01/07 00:51:09;;;;;;;83.22;32.23;;;;;;;-5.51;72.87;100760.09;2061026;86;27686;-61
2022/01/07 00:54:11;;;;;;;66.87;28.50;;;;;;;-5.51;72.90;100764.88;2060610;86;28696;-61
2022/01/07 00:57:16;;;;;;;75.08;31.60;;;;;;;-5.52;72.89;100759.20;2060832;86;31826;-60
2022/01/07 01:00:19;;;;;;;;;;;;;;;-5.53;72.86;100756.56;2062863;84;33783;-65
2022/01/07 01:03:23;;;;;;;70.00;28.35;;;;;;;-5.54;72.89;100756.97;2060975;84;29196;-60
2022/01/07 01:06:25;;;;;;;68.57;29.20;;;;;;;-5.55;72.98;100752.63;2060614;86;27740;-62
2022/01/07 01:09:27;;;;;;;68.20;30.12;;;;;;;-5.55;73.06;100753.03;2060458;84;29877;-67
2022/01/07 01:12:28;;;;;;;70.32;27.75;;;;;;;-5.55;73.08;100756.95;2060669;84;31476;-65
2022/01/07 01:15:30;;;;;;;66.42;27.77;;;;;;;-5.57;73.03;100756.03;2060783;84;34089;-61
2022/01/07 01:18:32;;;;;;;72.58;29.10;;;;;;;-5.59;73.12;100755.10;2060752;86;30639;-65
2022/01/07 01:21:35;;;;;;;62.50;26.65;;;;;;;-5.60;73.12;100760.77;2060833;86;27737;-62
2022/01/07 01:24:38;;;;;;;64.32;27.52;;;;;;;-5.60;73.13;100765.98;2060877;86;29892;-61
2022/01/07 01:27:40;;;;;;;65.70;27.65;;;;;;;-5.60;73.16;100762.47;2061187;86;31190;-63
2022/01/07 01:30:42;;;;;;;70.42;26.90;;;;;;;-5.60;73.16;100765.09;2053297;86;34095;-60
2022/01/07 01:33:46;;;;;;;67.87;25.75;;;;;;;-5.61;73.20;100760.70;2048794;86;30564;-61
2022/01/07 01:36:47;;;;;;;62.62;25.52;;;;;;;-5.63;73.27;100758.08;2049267;86;27738;-68
2022/01/07 01:39:49;;;;;;;68.02;25.00;;;;;;;-5.63;73.35;100754.59;2049109;86;28906;-61
2022/01/07 01:42:52;;;;;;;70.12;25.43;;;;;;;-5.63;73.42;100751.55;2048880;86;30669;-61
2022/01/07 01:45:54;;;;;;;66.17;24.95;;;;;;;-5.62;73.43;100754.62;2048874;86;34190;-61
2022/01/07 01:48:56;;;;;;;59.08;23.57;;;;;;;-5.62;73.46;100753.31;2048878;86;30553;-66
2022/01/07 01:51:58;;;;;;;65.78;25.40;;;;;;;-5.61;73.58;100752.47;2049207;85;27650;-63
2022/01/07 01:55:00;;;;;;;54.13;23.35;;;;;;;-5.58;73.61;100756.88;2056528;86;29059;-63
2022/01/07 01:58:02;;;;;;;58.73;22.13;;;;;;;-5.59;73.56;100751.19;2053683;86;32019;-66
2022/01/07 02:01:04;;;;;;;55.78;20.65;;;;;;;-5.57;73.58;100754.72;2053858;86;34184;-65
2022/01/07 02:04:06;;;;;;;59.90;23.35;;;;;;;-5.58;73.59;100751.25;2054416;86;30311;-62
2022/01/07 02:07:09;;;;;;;53.05;22.70;;;;;;;-5.57;73.52;100751.70;2053808;86;27712;-64
2022/01/07 02:10:14;;;;;;;55.48;21.05;;;;;;;-5.60;73.51;100749.02;2053722;86;28680;-60
2022/01/07 02:13:17;;;;;;;57.05;21.70;;;;;;;-5.60;73.54;100750.73;2096604;84;32052;-64
2022/01/07 02:16:19;;;;;;;50.92;21.07;;;;;;;-5.59;73.62;100748.58;2096529;83;34175;-60
2022/01/07 02:19:21;;;;;;;51.80;20.08;;;;;;;-5.59;73.68;100748.17;2096267;83;30536;-61
2022/01/07 02:22:24;;;;;;;48.83;19.62;;;;;;;-5.59;73.66;100745.97;2096289;84;28263;-62
2022/01/07 02:25:28;;;;;;;40.80;17.67;;;;;;;-5.59;73.64;100747.27;2096461;83;32781;-62
2022/01/07 02:28:34;;;;;;;45.92;19.10;;;;;;;-5.60;73.66;100746.41;2095897;84;31400;-66
2022/01/07 02:31:36;;;;;;;41.58;18.62;;;;;;;-5.61;73.64;100748.55;2099189;83;33279;-63
2022/01/07 02:34:38;;;;;;;49.27;18.82;;;;;;;-5.63;73.64;100754.16;2100362;84;30567;-61
2022/01/07 02:37:40;;;;;;;46.55;19.75;;;;;;;-5.63;73.67;100750.69;2099980;84;27695;-61
2022/01/07 02:40:42;;;;;;;45.78;18.52;;;;;;;-5.66;73.75;100749.77;2099964;84;29329;-64
2022/01/07 02:43:44;;;;;;;46.08;17.77;;;;;;;-5.66;73.83;100744.54;2099862;84;32074;-67
2022/01/07 02:46:46;;;;;;;43.30;17.20;;;;;;;-5.64;73.87;100744.56;2099850;84;33491;-62
2022/01/07 02:49:49;;;;;;;47.48;17.57;;;;;;;-5.65;73.81;100748.02;2100287;84;29348;-60
2022/01/07 02:52:52;;;;;;;49.03;19.70;;;;;;;-5.66;73.77;100748.45;2100032;84;27617;-60
2022/01/07 02:55:53;;;;;;;54.75;19.82;;;;;;;-5.65;73.81;100744.10;2100068;83;28654;-61
2022/01/07 02:58:56;;;;;;;52.78;18.02;;;;;;;-5.66;73.78;100748.45;2099809;84;31416;-64
2022/01/07 03:01:57;;;;;;;48.85;19.12;;;;;;;-5.66;73.82;100748.45;2099943;83;32967;-65
2022/01/07 03:04:59;;;;;;;51.10;20.25;;;;;;;-5.67;73.74;100745.38;2098745;84;30151;-66
2022/01/07 03:08:02;;;;;;;40.78;15.32;;;;;;;-5.66;73.74;100741.03;2099950;83;27726;-65
2022/01/07 03:11:03;;;;;;;42.93;17.62;;;;;;;-5.68;73.67;100746.23;2100481;84;29014;-64
2022/01/07 03:14:05;;;;;;;49.50;18.95;;;;;;;-5.68;73.75;100746.23;2098950;84;31079;-61
2022/01/07 03:17:07;;;;;;;43.95;17.32;;;;;;;-5.68;73.79;100747.53;2099413;83;34158;-62
2022/01/07 03:20:16;;;;;;;39.42;16.52;;;;;;;-5.69;73.76;100744.46;2099865;83;29685;-65
2022/01/07 03:23:18;;;;;;;44.63;15.40;;;;;;;-5.70;73.80;100739.19;2100304;84;27640;-64
2022/01/07 03:26:20;;;;;;;38.63;15.53;;;;;;;-5.69;73.79;100744.46;2100277;84;29369;-64
2022/01/07 03:29:22;;;;;;;33.25;14.65;;;;;;;-5.69;73.79;100746.17;2100305;84;31388;-63
2022/01/07 03:32:24;;;;;;;33.83;15.13;;;;;;;-5.69;73.79;100738.34;2129383;83;32927;-60
2022/01/07 03:35:26;;;;;;;34.53;14.33;;;;;;;-5.68;73.86;100737.50;2128518;83;29700;-61
2022/01/07 03:38:28;;;;;;;33.73;14.03;;;;;;;-5.66;73.96;100730.59;2106456;84;27733;-64
2022/01/07 03:41:30;;;;;;;34.48;13.20;;;;;;;-5.63;74.09;100722.84;2106826;84;29097;-67
2022/01/07 03:44:31;;;;;;;36.23;13.88;;;;;;;-5.59;74.09;100728.59;2107075;84;30788;-62
2022/01/07 03:47:34;;;;;;;31.77;12.95;;;;;;;-5.55;74.07;100726.53;2126688;83;33514;-61
2022/01/07 03:50:36;;;;;;;27.90;11.15;;;;;;;-5.53;74.06;100716.97;2131694;83;29466;-62
2022/01/07 03:53:39;;;;;;;28.92;10.18;;;;;;;-5.52;74.06;100716.56;2131452;83;27624;-65
2022/01/07 03:56:40;;;;;;;26.82;11.68;;;;;;;-5.51;74.10;100719.64;2119383;83;28426;-62
2022/01/07 03:59:42;;;;;;;30.77;11.57;;;;;;;-5.49;74.17;100716.64;2106945;84;32225;-61
2022/01/07 04:02:45;;;;;;;22.30;9.75;;;;;;;-5.47;74.16;100726.70;2107070;84;33363;-61
2022/01/07 04:05:47;;;;;;;27.32;11.63;;;;;;;-5.44;74.26;100721.96;2080436;84;30127;-64
2022/01/07 04:08:50;;;;;;;28.67;10.75;;;;;;;-5.41;74.32;100718.12;2114898;83;27674;-61
2022/01/07 04:11:52;;;;;;;28.30;11.63;;;;;;;-5.36;74.45;100721.69;2097945;84;28728;-61
2022/01/07 04:15:08;;;;;;;27.67;11.30;;;;;;;-5.31;74.48;100727.91;2098564;84;32236;-61
2022/01/07 04:18:03;;;;;;;32.83;12.73;;;;;;;-5.28;74.50;100727.98;2064675;84;32983;-62
2022/01/07 04:21:06;;;;;;;23.30;10.72;;;;;;;-5.23;74.52;100730.28;2128621;82;30194;-61
2022/01/07 04:24:08;;;;;;;31.20;11.90;;;;;;;-5.19;74.54;100727.30;2142844;83;28408;-61
2022/01/07 04:27:10;;;;;;;29.72;11.48;;;;;;;-5.17;74.52;100723.00;2135278;83;28990;-61
2022/01/07 04:30:13;;;;;;;29.15;11.28;;;;;;;-5.13;74.54;100725.23;2126471;83;32265;-62
2022/01/07 04:33:25;;;;;;;24.50;10.40;;;;;;;-5.11;74.50;100714.41;2084784;85;33407;-60
2022/01/07 04:36:20;;;;;;;29.37;12.53;;;;;;;-5.11;74.45;100717.88;2083177;85;30712;-61
2022/01/07 04:39:22;;;;;;;32.42;12.43;;;;;;;-5.08;74.50;100720.56;2084850;84;27704;-61
2022/01/07 04:42:24;;;;;;;26.05;10.95;;;;;;;-5.07;74.49;100711.02;2084662;85;29672;-60
2022/01/07 04:45:26;;;;;;;27.37;10.65;;;;;;;-5.06;74.51;100708.86;2084537;84;30960;-61
2022/01/07 04:48:28;;;;;;;26.33;10.98;;;;;;;-5.05;74.63;100709.32;2084135;85;34263;-62
2022/01/07 04:51:29;;;;;;;22.62;10.80;;;;;;;-5.02;74.61;100709.80;2084910;85;29758;-60
2022/01/07 04:54:32;;;;;;;25.32;10.50;;;;;;;-5.01;74.59;100712.87;2085137;83;27726;-62
2022/01/07 04:57:33;;;;;;;27.70;11.43;;;;;;;-5.00;74.65;100714.19;2084978;85;29884;-61
2022/01/07 05:00:36;;;;;;;23.83;11.03;;;;;;;-4.97;74.62;100714.70;2084890;85;32205;-62
2022/01/07 05:03:38;;;;;;;30.27;11.73;;;;;;;-4.96;74.61;100706.02;2085104;84;34275;-63
2022/01/07 05:06:45;;;;;;;23.18;9.88;;;;;;;-4.97;74.68;100711.65;2103149;83;29926;-61
2022/01/07 05:09:47;;;;;;;24.43;10.78;;;;;;;-4.95;74.70;100707.75;2114711;83;28354;-61
2022/01/07 05:12:49;;;;;;;20.10;10.43;;;;;;;-4.94;74.74;100702.98;2083937;85;28161;-60
2022/01/07 05:15:51;;;;;;;20.20;10.48;;;;;;;-4.94;74.74;100699.06;2084824;83;32197;-60
2022/01/07 05:18:53;;;;;;;28.92;11.63;;;;;;;-4.93;74.77;100692.98;2085013;85;32970;-65
2022/01/07 05:21:54;;;;;;;24.87;11.30;;;;;;;-4.94;74.81;100682.98;2085050;83;29465;-60
2022/01/07 05:24:56;;;;;;;26.40;11.35;;;;;;;-4.91;74.87;100687.37;2084320;85;27715;-60
2022/01/07 05:27:58;;;;;;;19.70;11.08;;;;;;;-4.89;74.91;100686.57;2085338;85;29048;-61
2022/01/07 05:31:02;;;;;;;19.12;10.98;;;;;;;-4.88;74.92;100684.38;2080494;85;31181;-60
2022/01/07 05:34:04;;;;;;;18.67;10.05;;;;;;;-4.87;74.93;100680.05;2063653;85;33827;-60
2022/01/07 05:37:07;;;;;;;22.75;10.00;;;;;;;-4.85;75.01;100673.12;2063613;86;30670;-60
2022/01/07 05:40:10;;;;;;;27.25;11.35;;;;;;;-4.82;75.05;100666.66;2063013;86;27865;-62
2022/01/07 05:43:12;;;;;;;20.90;11.30;;;;;;;-4.79;75.09;100657.98;2063939;85;29647;-60
2022/01/07 05:46:15;;;;;;;26.70;11.08;;;;;;;-4.75;75.06;100659.81;2064752;84;32404;-60
2022/01/07 05:49:17;;;;;;;26.90;11.20;;;;;;;-4.73;75.05;100655.50;2090721;84;33412;-61
2022/01/07 05:52:18;;;;;;;24.07;12.30;;;;;;;-4.70;75.04;100649.00;2067442;84;29923;-60
2022/01/07 05:55:21;;;;;;;25.00;11.95;;;;;;;-4.68;74.99;100655.58;2063925;84;27747;-61
2022/01/07 05:58:23;;;;;;;27.35;13.90;;;;;;;-4.67;74.95;100650.37;2063975;85;29054;-59
2022/01/07 06:01:24;;;;;;;29.50;13.88;;;;;;;-4.64;74.86;100654.79;2063428;86;32063;-60
2022/01/07 06:04:26;;;;;;;20.68;10.88;;;;;;;-4.63;74.87;100647.41;2063985;86;34142;-62
2022/01/07 06:07:28;;;;;;;21.42;11.18;;;;;;;-4.62;74.89;100642.59;2064179;85;29703;-59
2022/01/07 06:10:30;;;;;;;30.15;11.60;;;;;;;-4.62;74.85;100636.96;2064124;85;27663;-62
2022/01/07 06:13:31;;;;;;;24.63;11.35;;;;;;;-4.60;74.88;100640.49;2064203;86;30235;-62
2022/01/07 06:16:33;;;;;;;33.50;11.70;;;;;;;-4.59;74.83;100642.25;2063885;85;31436;-60
2022/01/07 06:19:35;;;;;;;23.10;12.20;;;;;;;-4.57;74.91;100650.11;2063858;86;34203;-62
2022/01/07 06:22:38;;;;;;;26.87;12.63;;;;;;;-4.55;74.93;100649.72;2063636;85;29750;-60
2022/01/07 06:25:39;;;;;;;30.00;12.95;;;;;;;-4.54;74.84;100656.70;2063719;85;27630;-60
2022/01/07 06:28:41;;;;;;;30.70;13.58;;;;;;;-4.54;74.88;100656.70;2063640;85;29914;-62
2022/01/07 06:31:43;;;;;;;37.85;15.00;;;;;;;-4.51;74.93;100658.08;2075485;84;31057;-59
2022/01/07 06:34:45;;;;;;;39.27;15.25;;;;;;;-4.51;74.93;100663.30;2099968;84;33375;-59
2022/01/07 06:37:47;;;;;;;42.27;16.10;;;;;;;-4.50;74.96;100671.60;2100207;84;30491;-60
2022/01/07 06:40:48;;;;;;;38.90;16.27;;;;;;;-4.48;74.92;100678.16;2100036;84;28728;-60
2022/01/07 06:43:50;;;;;;;29.32;13.70;;;;;;;-4.47;75.06;100685.15;2100044;83;29308;-62
2022/01/07 06:46:52;;;;;;;31.10;14.07;;;;;;;-4.46;75.05;100679.06;2100209;84;32224;-59
2022/01/07 06:49:55;;;;;;;33.20;13.80;;;;;;;-4.45;75.08;100679.52;2100322;84;33324;-60
2022/01/07 06:52:57;;;;;;;28.50;13.68;;;;;;;-4.44;75.08;100677.36;2100212;83;29707;-59
2022/01/07 06:55:59;;;;;;;28.23;13.08;;;;;;;-4.44;75.11;100671.69;2100499;83;28362;-61
2022/01/07 06:59:00;;;;;;;35.50;15.13;;;;;;;-4.43;75.08;100669.98;2099734;84;29304;-60
2022/01/07 07:02:03;;;;;;;27.95;14.53;;;;;;;-4.42;75.16;100671.73;2100043;83;31156;-59
2022/01/07 07:05:06;;;;;;;29.98;15.38;;;;;;;-4.42;75.17;100675.66;2099135;84;33079;-61
2022/01/07 07:08:08;;;;;;;31.87;15.03;;;;;;;-4.41;75.22;100664.34;2100082;83;30115;-60
2022/01/07 07:11:11;;;;;;;37.88;13.68;;;;;;;-4.39;75.23;100658.72;2065384;86;27676;-59
2022/01/07 07:14:13;;;;;;;30.80;13.88;;;;;;;-4.36;75.39;100664.42;2060417;86;28665;-59
2022/01/07 07:17:15;;;;;;;33.23;15.28;;;;;;;-4.33;75.44;100662.73;2100288;83;31993;-59
2022/01/07 07:20:16;;;;;;;33.92;14.58;;;;;;;-4.29;75.52;100654.50;2099165;84;33343;-60
2022/01/07 07:23:18;;;;;;;34.53;14.40;;;;;;;-4.23;75.69;100655.05;2099795;84;29789;-60
2022/01/07 07:26:20;;;;;;;27.80;13.32;;;;;;;-4.16;75.91;100650.36;2100306;84;27689;-60
2022/01/07 07:29:22;;;;;;;31.57;12.35;;;;;;;-4.05;76.08;100655.33;2099944;84;29302;-60
2022/01/07 07:32:27;;;;;;;27.65;12.50;;;;;;;-3.92;76.20;100645.94;2112181;83;31878;-60
2022/01/07 07:38:48;;;;;;;26.97;12.78;;;;;;;-3.59;76.48;100627.64;2127215;83;30375;-60
2022/01/07 07:41:49;;;;;;;34.98;13.72;;;;;;;-3.38;76.54;100636.20;2130191;82;27701;-60
2022/01/07 07:44:51;;;;;;;28.30;12.07;;;;;;;-3.19;76.58;100633.82;2116590;83;29865;-60
2022/01/07 07:47:53;;;;;;;30.52;12.07;;;;;;;-2.94;76.58;100626.26;2098424;84;31070;-61
2022/01/07 07:50:55;;;;;;;29.18;12.90;;;;;;;-2.72;76.57;100631.30;2068099;84;34284;-61
2022/01/07 07:53:57;;;;;;;29.57;13.13;;;;;;;-2.51;76.42;100630.61;2105952;84;30709;-61
2022/01/07 07:57:00;;;;;;;23.50;11.15;;;;;;;-2.30;76.41;100617.25;2127875;83;27687;-61
2022/01/07 08:00:04;;;;;;;23.77;11.18;;;;;;;-2.03;76.44;100621.84;2135594;83;29904;-62
2022/01/07 08:03:06;;;;;;;24.72;12.10;;;;;;;-1.74;76.27;100628.16;2131882;83;31193;-60
2022/01/07 08:06:08;;;;;;;25.25;10.88;;;;;;;-1.47;76.03;100614.27;2131315;83;33818;-61
2022/01/07 08:09:11;;;;;;;22.65;10.10;;;;;;;-1.24;75.79;100620.07;2113218;83;29785;-62
2022/01/07 08:12:19;;;;;;;18.25;10.25;;;;;;;-1.06;75.56;100628.45;2107097;84;27741;-61
2022/01/07 08:18:40;;;;;;;17.73;9.95;;;;;;;-0.92;75.05;100623.24;2108978;83;32243;-61
2022/01/07 08:21:42;;;;;;;20.97;10.53;;;;;;;-0.87;74.82;100624.14;2131553;83;33391;-63
2022/01/07 08:24:44;;;;;;;19.87;11.28;;;;;;;-0.81;74.96;100616.25;2119095;83;30549;-61
2022/01/07 08:27:46;;;;;;;28.23;10.63;;;;;;;-0.73;74.77;100616.72;2105601;83;27730;-61
2022/01/07 08:31:13;;;;;;;29.92;11.00;;;;;;;-0.66;74.66;100614.09;2070368;84;28677;-60
2022/01/07 08:37:27;;;;;;;25.17;11.15;;;;;;;-0.48;74.57;100618.49;2142505;83;34184;-61
2022/01/07 08:40:29;;;;;;;19.32;10.18;;;;;;;-0.41;74.27;100617.19;2117913;83;29315;-62
2022/01/07 08:43:31;;;;;;;21.23;10.53;;;;;;;-0.36;74.13;100615.00;2106755;84;28312;-61
2022/01/07 08:46:34;;;;;;;22.35;10.35;;;;;;;-0.34;74.01;100614.56;2106693;84;28867;-61
2022/01/07 08:49:36;;;;;;;20.52;10.40;;;;;;;-0.23;74.15;100621.57;2106749;83;30614;-61
2022/01/07 08:52:38;;;;;;;28.40;11.85;;;;;;;-0.17;74.02;100618.53;2105749;84;33768;-61
2022/01/07 08:55:39;;;;;;;25.43;11.55;;;;;;;-0.07;73.93;100613.24;2106884;84;29655;-60
2022/01/07 08:58:41;;;;;;;28.45;13.50;;;;;;;0.01;73.83;100615.87;2106910;84;27932;-61
2022/01/07 09:01:43;;;;;;;27.87;12.45;;;;;;;0.06;73.74;100609.70;2106866;84;30032;-60
2022/01/07 09:04:46;;;;;;;28.38;11.85;;;;;;;0.16;73.84;100611.89;2106583;84;31487;-60
2022/01/07 09:07:48;;;;;;;21.25;11.05;;;;;;;0.24;73.82;100607.50;2106496;84;34166;-61
2022/01/07 09:10:51;;;;;;;24.98;10.93;;;;;;;0.35;73.49;100607.91;2106370;84;30506;-60
2022/01/07 09:13:52;;;;;;;24.63;10.85;;;;;;;0.43;73.39;100616.22;2106653;84;27715;-60
2022/01/07 09:16:54;;;;;;;21.55;11.38;;;;;;;0.50;73.41;100609.63;2106805;83;29558;-60
2022/01/07 09:19:58;;;;;;;20.37;11.08;;;;;;;0.57;73.36;100599.48;2106149;84;31414;-60
2022/01/07 09:22:59;;;;;;;18.85;9.55;;;;;;;0.61;73.06;100603.87;2106368;84;33757;-60
2022/01/07 09:26:02;;;;;;;22.65;12.15;;;;;;;0.63;72.64;100605.17;2106608;84;29876;-60
2022/01/07 09:29:04;;;;;;;43.83;25.48;;;;;;;0.63;72.61;100594.20;2106531;83;27634;-60
2022/01/07 09:32:07;;;;;;;124.90;64.32;;;;;;;0.66;72.57;100599.89;2106371;83;29892;-60
2022/01/07 09:35:11;;;;;;;126.35;61.05;;;;;;;0.68;72.48;100592.39;2100484;84;31164;-60
2022/01/07 09:38:13;;;;;;;49.08;27.07;;;;;;;0.71;72.33;100587.58;2100936;84;33326;-60
2022/01/07 09:41:15;;;;;;;34.23;22.22;;;;;;;0.70;72.08;100581.41;2100994;84;30458;-60
2022/01/07 09:44:17;;;;;;;40.88;22.87;;;;;;;0.73;72.17;100581.39;2100694;84;28073;-62
2022/01/07 09:47:19;;;;;;;36.23;18.05;;;;;;;0.77;72.02;100581.39;2100574;84;29898;-65
2022/01/07 09:50:22;;;;;;;20.15;11.12;;;;;;;0.79;71.96;100576.53;2100777;84;32245;-61
2022/01/07 09:53:26;;;;;;;34.33;17.95;;;;;;;0.80;71.55;100572.15;2100805;84;33594;-63
2022/01/07 09:56:28;;;;;;;23.80;12.82;;;;;;;0.83;71.80;100567.73;2100580;83;30233;-61
2022/01/07 09:59:33;;;;;;;24.45;10.68;;;;;;;0.91;71.66;100567.69;2100550;83;28306;-63
2022/01/07 10:02:34;;;;;;;29.80;16.57;;;;;;;0.93;71.39;100551.84;2124094;83;28695;-61
2022/01/07 10:05:49;;;;;;;20.32;10.25;;;;;;;0.96;71.52;100546.13;2091494;83;27757;-65
2022/01/07 10:09:11;;;;;;;26.30;12.90;;;;;;;1.00;71.16;100543.02;2135976;83;33603;-64
2022/01/07 10:12:12;;;;;;;28.30;14.05;;;;;;;1.07;71.21;100538.14;2092839;84;29352;-65
2022/01/07 10:15:18;;;;;;;30.17;15.05;;;;;;;1.17;71.46;100537.19;2098523;83;27686;-64
2022/01/07 10:18:19;;;;;;;;;;;;;;;1.28;70.87;100528.30;2106237;83;29628;-63
2022/01/07 10:21:22;;;;;;;78.45;41.25;;;;;;;1.38;71.07;100530.42;2105466;83;32353;-60
2022/01/07 10:24:24;;;;;;;19.55;10.50;;;;;;;1.46;71.01;100529.47;2105087;83;33735;-62
2022/01/07 10:27:35;;;;;;;21.93;11.70;;;;;;;1.55;70.88;100524.56;2105973;83;28966;-61
2022/01/07 10:30:44;;;;;;;30.68;17.00;;;;;;;1.65;70.74;100528.00;2097284;83;27777;-66
2022/01/07 10:33:49;;;;;;;22.75;14.30;;;;;;;1.75;70.60;100523.05;2095955;83;29563;-67
2022/01/07 10:36:51;;;;;;;20.80;13.15;;;;;;;1.87;70.43;100516.77;2092765;83;31059;-65
2022/01/07 10:39:53;;;;;;;22.35;13.62;;;;;;;1.99;69.93;100514.91;2092215;83;34172;-64
2022/01/07 10:43:15;;;;;;;19.70;13.08;;;;;;;2.05;69.95;100511.75;2090882;83;29406;-63
2022/01/07 10:46:21;;;;;;;24.02;11.95;;;;;;;2.15;69.54;100508.56;2083220;83;27538;-70
2022/01/07 10:49:32;;;;;;;23.15;15.08;;;;;;;2.21;68.92;100507.61;2078587;83;28739;-68
2022/01/07 10:52:36;;;;;;;22.20;10.90;;;;;;;2.25;69.20;100510.20;2085073;83;32249;-68
2022/01/07 10:55:38;;;;;;;21.87;12.13;;;;;;;2.30;69.24;100514.56;2085820;85;32934;-70
2022/01/07 10:58:51;;;;;;;12.20;6.70;;;;;;;2.30;68.76;100507.48;2085933;85;30532;-61
2022/01/07 11:01:57;;;;;;;18.85;6.62;;;;;;;2.30;68.71;100503.52;2092491;83;27754;-62
2022/01/07 11:04:59;;;;;;;15.40;8.13;;;;;;;2.27;68.09;100508.41;2079275;83;28689;-65
2022/01/07 11:08:02;;;;;;;14.73;6.90;;;;;;;2.23;67.98;100507.16;2085020;85;30447;-67
2022/01/07 11:11:04;;;;;;;23.77;12.23;;;;;;;2.20;67.83;100507.19;2073800;84;33413;-65
2022/01/07 11:14:09;;;;;;;20.52;12.30;;;;;;;2.16;67.93;100508.10;2081704;83;29489;-64
2022/01/07 11:17:12;;;;;;;120.35;79.12;;;;;;;2.14;67.77;100505.49;2077937;83;27904;-66
2022/01/07 11:20:20;;;;;;;23.02;14.73;;;;;;;2.16;67.96;100501.03;2075516;84;29634;-65
2022/01/07 11:23:19;;;;;;;21.68;11.05;;;;;;;2.19;67.82;100501.47;2086249;83;31125;-64
2022/01/07 11:26:26;;;;;;;31.02;19.30;;;;;;;2.18;67.42;100492.64;2110531;83;33585;-64
2022/01/07 11:29:29;;;;;;;30.32;14.65;;;;;;;2.16;67.27;100493.11;2071564;84;30558;-64
2022/01/07 11:32:46;;;;;;;85.67;36.85;;;;;;;2.16;67.52;100490.92;2044283;86;27749;-63
2022/01/07 11:35:49;;;;;;;43.02;20.85;;;;;;;2.16;67.18;100492.25;2051267;84;30211;-64
2022/01/07 11:38:51;;;;;;;65.83;40.48;;;;;;;2.15;67.25;100486.09;2037947;85;31081;-63
2022/01/07 11:41:58;;;;;;;48.35;31.30;;;;;;;2.18;67.19;100478.56;2071426;85;34182;-64
2022/01/07 11:44:58;;;;;;;66.15;38.33;;;;;;;2.17;66.77;100478.14;2034310;86;30143;-64
2022/01/07 11:48:16;;;;;;;67.05;44.53;;;;;;;2.21;67.02;100475.89;2080168;83;27705;-66
2022/01/07 11:51:18;;;;;;;46.58;25.37;;;;;;;2.29;67.03;100472.69;2104090;83;29731;-63
2022/01/07 11:54:20;;;;;;;37.23;22.73;;;;;;;2.36;66.99;100460.27;2121432;83;32281;-64
2022/01/07 11:57:22;;;;;;;45.92;23.10;;;;;;;2.47;66.93;100449.55;2122760;83;34364;-65
2022/01/07 12:00:55;;;;;;;36.33;18.23;;;;;;;2.58;66.91;100453.80;2095645;83;30603;-64
2022/01/07 12:04:00;;;;;;;28.52;15.80;;;;;;;2.70;66.59;100455.83;2046240;84;28732;-64
2022/01/07 12:07:04;;;;;;;21.75;12.65;;;;;;;2.84;66.58;100452.99;2045650;87;29546;-63
2022/01/07 12:10:13;;;;;;;19.07;13.13;;;;;;;2.93;66.30;100444.04;2045078;85;31919;-63
2022/01/07 12:13:17;;;;;;;26.62;15.30;;;;;;;3.01;65.96;100439.48;2044473;86;29491;-65
2022/01/07 12:16:22;;;;;;;23.83;14.33;;;;;;;3.09;65.31;100436.70;2046531;85;29838;-64
2022/01/07 12:19:42;;;;;;;29.85;17.67;;;;;;;3.15;65.99;100427.35;2045530;85;27715;-64
2022/01/07 12:22:49;;;;;;;21.12;10.90;;;;;;;3.23;65.64;100428.54;2024695;87;30037;-64
2022/01/07 12:25:53;;;;;;;26.25;16.87;;;;;;;3.28;65.42;100420.94;2025027;87;31051;-64
2022/01/07 12:28:55;;;;;;;28.77;17.77;;;;;;;3.32;65.47;100413.80;2025166;87;34017;-64
2022/01/07 12:31:58;;;;;;;28.02;17.62;;;;;;;3.33;65.24;100407.17;2024921;86;30458;-64
2022/01/07 12:35:02;;;;;;;25.57;13.72;;;;;;;3.33;65.08;100404.53;2072223;84;27761;-64
2022/01/07 12:38:13;;;;;;;20.00;13.90;;;;;;;3.36;65.08;100397.44;2073005;85;28133;-64
2022/01/07 12:41:20;;;;;;;18.40;9.73;;;;;;;3.38;64.93;100391.66;2104265;83;31012;-64
2022/01/07 12:44:23;;;;;;;20.62;10.53;;;;;;;3.37;64.50;100386.80;2099462;84;34142;-63
2022/01/07 12:47:30;;;;;;;24.30;11.63;;;;;;;3.35;64.38;100393.89;2094668;84;29505;-63
2022/01/07 12:50:36;;;;;;;17.25;9.13;;;;;;;3.33;64.39;100394.37;2097612;84;27773;-63
2022/01/07 12:53:35;;;;;;;20.48;9.28;;;;;;;3.32;64.38;100390.87;2099653;83;29127;-65
2022/01/07 12:56:39;;;;;;;20.70;9.50;;;;;;;3.32;64.33;100385.56;2118424;83;31163;-63
2022/01/07 12:59:41;;;;;;;19.95;9.08;;;;;;;3.32;64.60;100379.38;2116176;83;33313;-65
2022/01/07 13:02:47;;;;;;;20.90;9.00;;;;;;;3.31;64.44;100378.98;2110950;83;30215;-63
2022/01/07 13:05:49;;;;;;;25.52;10.58;;;;;;;3.29;64.30;100372.84;2121255;83;27716;-64
2022/01/07 13:08:51;;;;;;;21.02;9.23;;;;;;;3.26;64.20;100369.78;2050412;85;30181;-63
2022/01/07 13:11:56;;;;;;;18.90;8.00;;;;;;;3.22;64.25;100366.80;2015153;87;32273;-63
2022/01/07 13:14:58;;;;;;;53.33;27.32;;;;;;;3.19;64.32;100360.23;2015195;88;36850;-63
2022/01/07 13:18:31;;;;;;;35.23;18.90;;;;;;;3.16;64.02;100357.62;2018729;86;31430;-65
2022/01/07 13:21:36;;;;;;;27.55;14.73;;;;;;;3.12;63.84;100360.79;2099639;83;28288;-63
2022/01/07 13:24:39;;;;;;;28.90;16.30;;;;;;;3.09;64.08;100360.84;2093589;84;29482;-70
2022/01/07 13:27:41;;;;;;;44.63;28.67;;;;;;;3.08;64.35;100364.38;2102903;83;31039;-68
2022/01/07 13:30:46;;;;;;;34.67;20.77;;;;;;;3.14;64.04;100359.42;2099584;83;32950;-65
2022/01/07 13:33:52;;;;;;;29.50;16.10;;;;;;;3.17;64.19;100357.59;2102064;83;29346;-71
2022/01/07 13:37:05;;;;;;;32.95;17.75;;;;;;;3.18;63.87;100359.34;2087668;85;27695;-69
2022/01/07 13:40:08;;;;;;;29.23;17.25;;;;;;;3.16;63.71;100358.48;2093750;85;28688;-67
2022/01/07 13:43:14;;;;;;;38.23;21.40;;;;;;;3.16;63.81;100357.62;2096397;84;31269;-67
2022/01/07 13:46:22;;;;;;;18.50;9.73;;;;;;;3.15;63.73;100359.38;2092510;85;33782;-69
2022/01/07 13:49:24;;;;;;;17.67;9.08;;;;;;;3.12;63.47;100359.90;2074036;85;29493;-70
2022/01/07 13:52:29;;;;;;;21.95;10.03;;;;;;;3.06;63.45;100360.03;2093259;85;27846;-71
2022/01/07 13:55:36;;;;;;;26.80;16.67;;;;;;;3.00;63.47;100349.08;2092877;85;28664;-72
2022/01/07 13:58:38;;;;;;;25.68;12.95;;;;;;;2.96;63.48;100344.30;2050492;86;31110;-69
2022/01/07 14:01:58;;;;;;;19.73;10.53;;;;;;;2.90;63.34;100345.71;2048247;86;33718;-72
2022/01/07 14:05:08;;;;;;;24.25;14.00;;;;;;;2.83;63.37;100348.06;2045154;87;28865;-71
2022/01/07 14:08:12;;;;;;;22.90;11.80;;;;;;;2.77;63.39;100346.39;2008269;87;27651;-69
2022/01/07 14:11:17;;;;;;;32.45;17.92;;;;;;;2.70;63.50;100342.98;2050380;86;28775;-70